DW0108 Weather Reports


Display with metric or nautical units.
time (UTC)temp
F
wind
direction
speed
MPH
gust
MPH
rain 1hr
in
rain 24hr
in
rain mn
in
humidity
%
barometer
mb
20220519113807 73 213 1.0 6.0 0.00 0.00 0.00 80 702.6
20220519112844 73 203 3.0 9.0 0.00 0.00 0.00 79 702.6
20220519111813 73 203 1.0 4.0 0.00 0.00 0.00 79 702.6
20220519104819 73 200 1.0 11.0 0.00 0.00 0.00 78 702.6
20220519102819 74 194 1.0 6.0 0.00 0.00 0.00 77 702.6
20220519100835 75 197 0.0 3.0 0.00 0.00 0.00 75 702.6
20220519095837 75 193 0.0 4.0 0.00 0.00 0.00 75 702.6
20220519092823 75 192 0.0 3.0 0.00 0.00 0.00 74 702.6
20220519091810 76 197 0.0 3.0 0.00 0.00 0.00 73 702.6
20220519090818 76 190 0.0 4.0 0.00 0.00 0.00 72 702.6
20220519085843 76 199 0.0 1.0 0.00 0.00 0.00 71 702.6
20220519083831 76 198 2.0 9.0 0.00 0.00 0.00 70 702.6
20220519081812 77 196 1.0 6.0 0.00 0.00 0.00 68 702.6
20220519074805 78 197 5.0 16.0 0.00 0.00 0.00 65 702.6
20220519073819 79 211 6.0 11.0 0.00 0.00 0.00 64 702.6
20220519071844 79 207 5.0 19.0 0.00 0.00 0.00 63 702.6
20220519065834 80 202 2.0 6.0 0.00 0.00 0.00 62 702.6
20220519064818 80 200 1.0 5.0 0.00 0.00 0.00 61 702.6
20220519061842 81 203 3.0 11.0 0.00 0.00 0.00 58 702.6
20220519060843 82 204 3.0 11.0 0.00 0.00 0.00 57 702.6
20220519054816 82 197 4.0 12.0 0.00 0.00 0.00 55 702.6
20220519053838 83 206 6.0 15.0 0.00 0.00 0.00 53 702.6
20220519052840 83 197 4.0 14.0 0.00 0.00 0.00 52 702.6
20220519051817 83 192 2.0 7.0 0.00 0.00 0.00 50 702.6
20220519045839 83 197 5.0 13.0 0.00 0.00 0.00 48 702.6
20220519044846 83 193 2.0 10.0 0.00 0.00 0.00 47 702.6
20220519042815 84 194 2.0 10.0 0.00 0.00 0.00 46 702.6
20220519041806 84 189 0.0 1.0 0.00 0.00 0.00 45 702.6
20220519034806 84 196 3.0 11.0 0.00 0.00 0.00 45 702.6
20220519032847 84 191 2.0 9.0 0.00 0.00 0.00 47 702.6
20220519031827 85 194 2.0 10.0 0.00 0.00 0.00 46 702.6
20220519025827 85 199 0.0 5.0 0.00 0.00 0.00 48 702.6
20220519024809 86 187 1.0 5.0 0.00 0.00 0.00 46 702.6
20220519023806 85 185 0.0 2.0 0.00 0.00 0.00 44 702.6
20220519021828 85 197 0.0 4.0 0.00 0.00 0.00 43 702.6
20220519020848 86 190 0.0 2.0 0.00 0.00 0.00 43 702.6
20220519012808 89 183 0.0 3.0 0.00 0.00 0.00 36 702.6
20220519011813 89 197 3.0 14.0 0.00 0.00 0.00 35 702.6
20220519010831 90 192 3.0 10.0 0.00 0.00 0.00 35 702.6
20220519005814 90 195 1.0 6.0 0.00 0.00 0.00 35 702.6
20220518235817 93 191 3.0 14.0 0.00 0.00 0.00 30 702.6
20220518234832 94 203 3.0 15.0 0.00 0.00 0.00 29 702.6
20220518233823 94 185 3.0 15.0 0.00 0.00 0.00 28 702.6
20220518232832 95 202 3.0 15.0 0.00 0.00 0.00 27 702.6
20220518231824 96 199 7.0 18.0 0.00 0.00 0.00 26 702.6
20220518230804 98 192 3.0 18.0 0.00 0.00 0.00 26 702.6
20220518225845 98 178 4.0 15.0 0.00 0.00 0.00 26 702.6
20220518223818 98 188 3.0 10.0 0.00 0.00 0.00 27 702.6
20220518221823 99 177 3.0 10.0 0.00 0.00 0.00 27 702.6
20220518215815 99 175 3.0 14.0 0.00 0.00 0.00 26 702.6
20220518213805 98 201 1.0 4.0 0.00 0.00 0.00 29 702.6
20220518212847 98 167 5.0 10.0 0.00 0.00 0.00 29 702.6
20220518211805 98 191 4.0 15.0 0.00 0.00 0.00 31 702.6
20220518210842 98 182 5.0 13.0 0.00 0.00 0.00 31 702.6
20220518204812 98 172 2.0 7.0 0.00 0.00 0.00 32 702.6
20220518203827 97 196 2.0 10.0 0.00 0.00 0.00 33 702.6
20220518202820 97 181 2.0 7.0 0.00 0.00 0.00 33 702.6
20220518200839 95 184 3.0 12.0 0.00 0.00 0.00 38 702.6
20220518192831 91 180 3.0 13.0 0.00 0.00 0.00 40 702.6
20220518191840 91 188 0.0 5.0 0.00 0.00 0.00 42 702.6
20220518190821 90 185 2.0 10.0 0.00 0.00 0.00 41 702.6
20220518183846 89 194 1.0 8.0 0.00 0.00 0.00 49 702.6
20220518182814 88 202 1.0 4.0 0.00 0.00 0.00 47 702.6
20220518181811 87 200 2.0 6.0 0.00 0.00 0.00 52 702.6
20220518175827 86 194 2.0 9.0 0.00 0.00 0.00 48 702.6
20220518173837 85 186 3.0 9.0 0.00 0.00 0.00 53 702.6
20220518171819 82 200 2.0 6.0 0.00 0.00 0.00 57 702.6
20220518170840 82 185 2.0 11.0 0.00 0.00 0.00 57 702.6
20220518165835 82 203 1.0 6.0 0.00 0.00 0.00 54 702.6
20220518164824 82 206 1.0 9.0 0.00 0.00 0.00 53 702.6
20220518163818 82 196 2.0 9.0 0.00 0.00 0.00 53 702.6
20220518161822 82 187 0.0 7.0 0.00 0.00 0.00 58 702.6
20220518160836 81 203 2.0 10.0 0.00 0.00 0.00 58 702.6
20220518155841 80 200 2.0 11.0 0.00 0.00 0.00 59 702.6
20220518154819 80 213 6.0 11.0 0.00 0.00 0.00 59 702.6
20220518153838 81 200 2.0 11.0 0.00 0.00 0.00 58 702.6
20220518152832 81 192 3.0 11.0 0.00 0.00 0.00 60 702.6
20220518145840 79 192 4.0 7.0 0.00 0.00 0.00 64 702.6
20220518144831 79 188 5.0 16.0 0.00 0.00 0.00 65 702.6
20220518143828 78 199 3.0 10.0 0.00 0.00 0.00 66 702.6
20220518142826 78 197 5.0 13.0 0.00 0.00 0.00 67 702.6
20220518141815 77 199 8.0 18.0 0.00 0.00 0.00 67 702.6
20220518140810 77 200 4.0 16.0 0.00 0.00 0.00 68 702.6
20220518132845 75 197 1.0 8.0 0.00 0.00 0.00 72 702.6
20220518131807 74 196 1.0 6.0 0.00 0.00 0.00 73 702.6
20220518130835 74 194 2.0 12.0 0.00 0.00 0.00 73 702.6
20220518125829 74 181 0.0 5.0 0.00 0.00 0.00 73 702.6
20220518121819 74 202 1.0 6.0 0.00 0.00 0.00 71 702.6
20220518120828 74 212 0.0 1.0 0.00 0.00 0.00 70 702.6